Time;durP1;ratioP1;P1;durP2;ratioP2;P2;SDS_P1;SDS_P2;PMS_P1;PMS_P2;Temp;Humidity;BMP_temperature;BMP_pressure;BME280_temperature;BME280_humidity;BME280_pressure;Samples;Min_cycle;Max_cycle;Signal;HPM_P1;HPM_P2
2024/02/18 00:00:48;;;;;;;39.77;22.83;;;6.70;99.90;;;;;;6214414;23;20008;-76
2024/02/18 00:03:14;;;;;;;36.07;21.87;;;6.60;99.90;;;;;;6214020;23;20001;-76
2024/02/18 00:05:39;;;;;;;34.73;20.73;;;6.50;99.90;;;;;;6212935;23;20092;-76
2024/02/18 00:08:05;;;;;;;32.40;20.57;;;6.50;99.90;;;;;;6213658;23;20008;-76
2024/02/18 00:10:31;;;;;;;34.63;20.80;;;6.40;99.90;;;;;;6214103;23;20030;-76
2024/02/18 00:12:56;;;;;;;33.90;20.50;;;6.40;99.90;;;;;;6213168;23;20020;-76
2024/02/18 00:15:22;;;;;;;35.03;21.23;;;6.40;99.90;;;;;;6212993;23;20008;-76
2024/02/18 00:17:48;;;;;;;33.53;20.47;;;6.30;99.90;;;;;;6213278;23;20012;-76
2024/02/18 00:20:15;;;;;;;38.53;22.03;;;6.30;99.90;;;;;;6213683;23;20015;-76
2024/02/18 00:22:41;;;;;;;34.17;20.53;;;6.30;99.90;;;;;;6212776;23;20012;-76
2024/02/18 00:25:07;;;;;;;35.53;20.67;;;6.30;99.90;;;;;;6212722;23;20343;-76
2024/02/18 00:27:33;;;;;;;33.77;22.03;;;6.20;99.90;;;;;;6213212;23;20072;-76
2024/02/18 00:29:59;;;;;;;35.80;21.67;;;6.20;99.90;;;;;;6212886;23;20457;-76
2024/02/18 00:32:24;;;;;;;35.20;22.33;;;6.30;99.90;;;;;;6213586;23;20008;-76
2024/02/18 00:34:50;;;;;;;39.97;24.23;;;6.30;99.90;;;;;;6213205;23;20112;-76
2024/02/18 00:37:17;;;;;;;39.80;23.07;;;6.30;99.90;;;;;;6212582;23;20008;-76
2024/02/18 00:39:43;;;;;;;38.87;22.37;;;6.30;99.90;;;;;;6213606;23;20007;-77
2024/02/18 00:42:10;;;;;;;42.10;22.97;;;6.30;99.90;;;;;;6213854;23;20008;-77
2024/02/18 00:44:36;;;;;;;37.50;22.93;;;6.40;99.90;;;;;;6212353;23;19996;-77
2024/02/18 00:47:01;;;;;;;38.20;23.13;;;6.40;99.90;;;;;;6213502;23;19996;-77
2024/02/18 00:49:27;;;;;;;36.63;21.47;;;6.40;99.90;;;;;;6214066;23;20541;-78
2024/02/18 00:51:52;;;;;;;31.80;20.13;;;6.40;99.90;;;;;;6213436;23;20008;-77
2024/02/18 00:54:18;;;;;;;37.40;22.33;;;6.40;99.90;;;;;;6212564;23;20008;-78
2024/02/18 00:56:46;;;;;;;37.10;22.03;;;6.50;99.90;;;;;;6213690;23;20022;-77
2024/02/18 00:59:12;;;;;;;37.27;21.43;;;6.50;99.90;;;;;;6212524;23;20427;-77
2024/02/18 01:01:38;;;;;;;34.17;21.30;;;6.40;99.90;;;;;;6212937;23;20123;-77
2024/02/18 01:04:04;;;;;;;35.67;22.20;;;6.50;99.90;;;;;;6213052;23;20000;-77
2024/02/18 01:06:30;;;;;;;34.73;22.20;;;6.50;99.90;;;;;;6213616;23;20012;-77
2024/02/18 01:08:55;;;;;;;37.33;22.07;;;6.50;99.90;;;;;;6212808;23;20011;-77
2024/02/18 01:11:21;;;;;;;31.40;20.60;;;6.50;99.90;;;;;;6213506;23;20455;-77
2024/02/18 01:13:46;;;;;;;33.10;20.53;;;6.50;99.90;;;;;;6212493;23;20001;-77
2024/02/18 01:16:12;;;;;;;37.73;21.83;;;6.50;99.90;;;;;;6211499;23;20016;-77
2024/02/18 01:18:39;;;;;;;41.43;22.10;;;6.50;99.90;;;;;;6212626;23;20331;-77
2024/02/18 01:21:05;;;;;;;37.47;23.80;;;6.60;99.90;;;;;;6213287;23;20509;-77
2024/02/18 01:23:31;;;;;;;37.23;22.83;;;6.50;99.90;;;;;;6213106;23;20106;-77
2024/02/18 01:25:56;;;;;;;39.73;23.43;;;6.50;99.90;;;;;;6212003;23;20022;-77
2024/02/18 01:28:24;;;;;;;42.40;24.60;;;6.50;99.90;;;;;;6213305;23;20047;-77
2024/02/18 01:30:50;;;;;;;44.63;24.63;;;6.50;99.90;;;;;;6213262;23;20456;-77
2024/02/18 01:33:16;;;;;;;38.30;23.93;;;6.50;99.90;;;;;;6212586;23;19996;-77
2024/02/18 01:35:41;;;;;;;39.17;24.20;;;6.50;99.90;;;;;;6212495;23;20012;-77
2024/02/18 01:38:07;;;;;;;36.73;23.33;;;6.50;99.90;;;;;;6213240;23;20112;-77
2024/02/18 01:40:32;;;;;;;39.53;25.03;;;6.50;99.90;;;;;;6212800;23;20450;-77
2024/02/18 01:42:58;;;;;;;44.03;24.07;;;6.50;99.90;;;;;;6212341;23;20031;-77
2024/02/18 01:45:23;;;;;;;39.80;23.53;;;6.50;99.90;;;;;;6212822;23;20375;-77
2024/02/18 01:47:49;;;;;;;37.03;21.57;;;6.50;99.90;;;;;;6212940;23;20008;-77
2024/02/18 01:50:15;;;;;;;33.47;20.73;;;6.40;99.90;;;;;;6212759;23;20011;-77
2024/02/18 01:52:43;;;;;;;34.10;21.13;;;6.40;99.90;;;;;;6213518;23;20059;-77
2024/02/18 01:55:10;;;;;;;36.00;21.03;;;6.40;99.90;;;;;;6212225;23;20423;-77
2024/02/18 01:57:37;;;;;;;36.63;22.93;;;6.40;99.90;;;;;;6212331;23;20424;-77
2024/02/18 02:00:05;;;;;;;39.43;22.23;;;6.40;99.90;;;;;;6213049;23;20080;-77
2024/02/18 02:02:31;;;;;;;39.60;23.20;;;6.40;99.90;;;;;;6212648;23;20001;-77
2024/02/18 02:04:57;;;;;;;38.03;23.50;;;6.40;99.90;;;;;;6212002;23;20036;-77
2024/02/18 02:07:23;;;;;;;39.10;22.87;;;6.40;99.90;;;;;;6212823;23;20032;-77
2024/02/18 02:09:49;;;;;;;39.87;22.53;;;6.40;99.90;;;;;;6212958;23;20004;-77
2024/02/18 02:12:15;;;;;;;39.70;23.77;;;6.40;99.90;;;;;;6212040;23;20008;-77
2024/02/18 02:14:40;;;;;;;38.97;24.80;;;6.40;99.90;;;;;;6211827;23;20015;-77
2024/02/18 02:17:07;;;;;;;42.03;25.10;;;6.40;99.90;;;;;;6212927;23;20027;-77
2024/02/18 02:19:33;;;;;;;42.80;25.20;;;6.50;99.90;;;;;;6212241;23;20000;-77
2024/02/18 02:21:58;;;;;;;41.53;23.30;;;6.50;99.90;;;;;;6212379;23;20012;-77
2024/02/18 02:24:24;;;;;;;42.23;24.40;;;6.50;99.90;;;;;;6211797;23;20001;-77
2024/02/18 02:26:53;;;;;;;41.00;23.37;;;6.50;99.90;;;;;;6212751;23;20000;-77
2024/02/18 02:29:19;;;;;;;40.60;24.27;;;6.50;99.90;;;;;;6211759;23;20536;-77
2024/02/18 02:31:45;;;;;;;41.47;24.37;;;6.50;99.90;;;;;;6212900;23;20020;-77
2024/02/18 02:34:14;;;;;;;40.73;23.33;;;6.60;99.90;;;;;;6212337;23;20001;-77
2024/02/18 02:36:40;;;;;;;38.40;24.13;;;6.60;99.90;;;;;;6212104;23;20331;-77
2024/02/18 02:39:07;;;;;;;38.57;23.13;;;6.60;99.90;;;;;;6212397;23;20008;-77
2024/02/18 02:41:34;;;;;;;39.50;23.77;;;6.60;99.90;;;;;;6212629;23;20024;-77
2024/02/18 02:43:59;;;;;;;39.77;23.77;;;6.60;99.90;;;;;;6211333;23;20458;-77
2024/02/18 02:46:25;;;;;;;37.03;23.83;;;6.60;99.90;;;;;;6212200;23;20001;-77
2024/02/18 02:48:51;;;;;;;38.50;23.43;;;6.70;99.90;;;;;;6212605;23;19997;-78
2024/02/18 02:51:19;;;;;;;39.33;23.77;;;6.70;99.90;;;;;;6212879;23;20297;-77
2024/02/18 02:53:44;;;;;;;38.63;22.57;;;6.70;99.90;;;;;;6211740;23;20005;-77
2024/02/18 02:56:10;;;;;;;38.43;22.97;;;6.70;99.90;;;;;;6212468;23;20011;-77
2024/02/18 02:58:35;;;;;;;39.13;23.27;;;6.60;99.90;;;;;;6212248;23;20012;-77
2024/02/18 03:01:01;;;;;;;35.00;22.10;;;6.60;99.90;;;;;;6211813;23;20132;-77
2024/02/18 03:03:26;;;;;;;38.80;24.00;;;6.50;99.90;;;;;;6212442;23;20028;-77
2024/02/18 03:05:52;;;;;;;39.67;23.00;;;6.50;99.90;;;;;;6212076;23;19996;-77
2024/02/18 03:08:18;;;;;;;43.17;23.37;;;6.40;99.90;;;;;;6212275;23;20004;-77
2024/02/18 03:10:43;;;;;;;36.90;21.97;;;6.40;99.90;;;;;;6212877;23;20339;-77
2024/02/18 03:13:09;;;;;;;35.60;22.13;;;6.30;99.90;;;;;;6213249;23;19997;-77
2024/02/18 03:15:35;;;;;;;41.10;22.37;;;6.30;99.90;;;;;;6211970;23;20079;-77
2024/02/18 03:18:03;;;;;;;40.77;22.87;;;6.20;99.90;;;;;;6212394;23;20004;-76
2024/02/18 03:20:28;;;;;;;33.83;21.57;;;6.20;99.90;;;;;;6213232;23;20024;-77
2024/02/18 03:22:54;;;;;;;32.97;20.70;;;6.20;99.90;;;;;;6212454;23;20436;-77
2024/02/18 03:25:20;;;;;;;39.27;22.27;;;6.10;99.90;;;;;;6211265;23;20000;-77
2024/02/18 03:27:46;;;;;;;77.03;20.73;;;6.10;99.90;;;;;;6213526;23;20008;-77
2024/02/18 03:30:12;;;;;;;123.63;23.73;;;6.00;99.90;;;;;;6214893;23;20012;-77
2024/02/18 03:32:38;;;;;;;123.47;21.37;;;6.00;99.90;;;;;;6213683;23;20005;-77
2024/02/18 03:35:04;;;;;;;69.50;21.57;;;5.90;99.90;;;;;;6213790;23;20000;-77
2024/02/18 03:37:31;;;;;;;213.33;24.80;;;5.80;99.90;;;;;;6214663;23;20011;-77
2024/02/18 03:39:56;;;;;;;55.03;19.97;;;5.80;99.90;;;;;;6213082;23;20470;-77
2024/02/18 03:42:22;;;;;;;46.10;21.73;;;5.70;99.90;;;;;;6213437;23;20001;-77
2024/02/18 03:44:48;;;;;;;33.93;21.97;;;5.70;99.90;;;;;;6213591;23;20008;-77
2024/02/18 03:47:14;;;;;;;37.23;22.93;;;5.70;99.90;;;;;;6214196;23;20004;-77
2024/02/18 03:49:39;;;;;;;39.10;24.57;;;5.60;99.90;;;;;;6213549;23;20028;-77
2024/02/18 03:52:05;;;;;;;38.93;23.47;;;5.60;99.90;;;;;;6214162;23;20008;-77
2024/02/18 03:54:31;;;;;;;41.00;25.07;;;5.70;99.90;;;;;;6213382;23;20028;-77
2024/02/18 03:56:57;;;;;;;36.53;23.17;;;5.70;99.90;;;;;;6213468;23;20074;-77
2024/02/18 03:59:23;;;;;;;37.10;22.87;;;5.70;99.90;;;;;;6213686;23;20008;-77
2024/02/18 04:01:49;;;;;;;38.83;23.60;;;5.70;99.90;;;;;;6214492;23;20031;-77
2024/02/18 04:04:15;;;;;;;34.43;22.20;;;5.70;99.90;;;;;;6212866;23;20008;-77
2024/02/18 04:06:41;;;;;;;38.87;22.93;;;5.80;99.90;;;;;;6213674;23;20031;-77
2024/02/18 04:09:07;;;;;;;37.60;23.03;;;5.80;99.90;;;;;;6213929;23;20155;-77
2024/02/18 04:11:32;;;;;;;39.90;24.20;;;5.80;99.90;;;;;;6213816;23;20086;-77
2024/02/18 04:13:59;;;;;;;35.53;21.80;;;5.80;99.90;;;;;;6212422;23;20015;-77
2024/02/18 04:16:24;;;;;;;36.70;22.97;;;5.80;99.90;;;;;;6213981;23;20019;-77
2024/02/18 04:18:52;;;;;;;37.97;24.50;;;5.90;99.90;;;;;;6213632;23;20009;-77
2024/02/18 04:21:18;;;;;;;38.20;23.10;;;5.90;99.90;;;;;;6213053;23;20005;-77
2024/02/18 04:23:44;;;;;;;34.87;22.33;;;5.90;99.90;;;;;;6213198;23;20027;-77
2024/02/18 04:26:10;;;;;;;37.60;23.30;;;5.90;99.90;;;;;;6214220;23;20074;-77
2024/02/18 04:28:35;;;;;;;34.13;21.93;;;5.90;99.90;;;;;;6212632;23;20466;-77
2024/02/18 04:31:01;;;;;;;36.43;22.43;;;5.90;99.90;;;;;;6213692;23;20024;-78
2024/02/18 04:33:26;;;;;;;38.20;23.77;;;5.90;99.90;;;;;;6213831;23;19997;-77
2024/02/18 04:35:52;;;;;;;37.17;22.83;;;5.90;99.90;;;;;;6212915;23;20001;-77
2024/02/18 04:38:17;;;;;;;39.03;23.97;;;6.00;99.90;;;;;;6212378;23;20339;-77
2024/02/18 04:40:43;;;;;;;39.13;23.07;;;5.90;99.90;;;;;;6212514;23;20001;-77
2024/02/18 04:43:09;;;;;;;38.00;23.47;;;6.00;99.90;;;;;;6212763;23;20018;-77
2024/02/18 04:45:35;;;;;;;38.60;22.70;;;5.90;99.90;;;;;;6212401;23;20431;-77
2024/02/18 04:48:01;;;;;;;35.27;21.17;;;5.90;99.90;;;;;;6213280;23;20344;-77
2024/02/18 04:50:27;;;;;;;33.70;20.70;;;5.90;99.90;;;;;;6213745;23;20001;-77
2024/02/18 04:52:53;;;;;;;34.93;21.50;;;5.90;99.90;;;;;;6213034;23;20004;-77
2024/02/18 04:55:18;;;;;;;31.73;21.13;;;5.90;99.90;;;;;;6212926;23;20024;-77
2024/02/18 04:57:44;;;;;;;34.20;20.57;;;5.90;99.90;;;;;;6213757;23;20001;-77
2024/02/18 05:00:10;;;;;;;39.20;22.83;;;5.90;99.90;;;;;;6213304;23;20324;-77
2024/02/18 05:02:36;;;;;;;36.50;21.33;;;5.90;99.90;;;;;;6213065;23;20036;-77
2024/02/18 05:05:04;;;;;;;33.90;20.83;;;5.90;99.90;;;;;;6213282;23;20015;-78
2024/02/18 05:07:30;;;;;;;40.17;23.20;;;5.90;99.90;;;;;;6213037;23;20432;-77
2024/02/18 05:09:55;;;;;;;41.50;22.63;;;5.90;99.90;;;;;;6212992;23;20019;-78
2024/02/18 05:12:21;;;;;;;34.73;21.57;;;5.90;99.90;;;;;;6213478;23;20415;-77
2024/02/18 05:14:47;;;;;;;34.80;22.13;;;5.80;99.90;;;;;;6212471;23;20400;-77
2024/02/18 05:17:12;;;;;;;32.70;22.13;;;5.80;99.90;;;;;;6211243;23;20062;-77
2024/02/18 05:19:38;;;;;;;32.63;21.30;;;5.80;99.90;;;;;;6211664;23;20485;-77
2024/02/18 05:22:04;;;;;;;35.93;23.60;;;5.80;99.90;;;;;;6211377;23;20399;-77
2024/02/18 05:24:32;;;;;;;33.53;22.07;;;5.70;99.90;;;;;;6211079;23;20008;-77
2024/02/18 05:26:57;;;;;;;34.13;22.87;;;5.70;99.90;;;;;;6212347;23;20458;-77
2024/02/18 05:29:23;;;;;;;36.87;22.57;;;5.70;99.90;;;;;;6212771;23;20009;-77
2024/02/18 05:31:48;;;;;;;34.13;22.63;;;5.70;99.90;;;;;;6212051;23;20419;-77
2024/02/18 05:34:14;;;;;;;43.60;25.33;;;5.70;99.90;;;;;;6211268;23;20066;-77
2024/02/18 05:36:43;;;;;;;40.03;22.83;;;5.60;99.90;;;;;;6212846;23;20064;-77
2024/02/18 05:39:09;;;;;;;45.07;22.80;;;5.60;99.90;;;;;;6212195;23;20398;-77
2024/02/18 05:41:34;;;;;;;52.80;20.77;;;5.60;99.90;;;;;;6212158;23;20008;-76
2024/02/18 05:44:00;;;;;;;109.83;22.97;;;5.50;99.90;;;;;;6212695;23;20330;-77
2024/02/18 05:46:26;;;;;;;104.27;22.43;;;5.40;99.90;;;;;;6213142;23;20379;-77
2024/02/18 05:48:51;;;;;;;30.33;20.37;;;5.40;99.90;;;;;;6212523;23;20031;-77
2024/02/18 05:51:17;;;;;;;34.27;21.73;;;5.30;99.90;;;;;;6212840;23;20312;-77
2024/02/18 05:53:42;;;;;;;31.07;19.23;;;5.30;99.90;;;;;;6213325;23;20003;-77
2024/02/18 05:56:08;;;;;;;28.37;18.00;;;5.30;99.90;;;;;;6212397;23;20001;-77
2024/02/18 05:58:33;;;;;;;38.33;18.63;;;5.20;99.90;;;;;;6212510;23;20009;-77
2024/02/18 06:00:59;;;;;;;26.37;17.87;;;5.20;99.90;;;;;;6213414;23;20011;-77
2024/02/18 06:03:25;;;;;;;34.50;16.97;;;5.10;99.90;;;;;;6212808;23;20532;-77
2024/02/18 06:05:50;;;;;;;51.40;18.00;;;5.10;99.90;;;;;;6211843;23;20367;-77
2024/02/18 06:08:16;;;;;;;24.37;16.60;;;5.10;99.90;;;;;;6213183;23;20423;-77
2024/02/18 06:10:41;;;;;;;41.30;17.17;;;5.10;99.90;;;;;;6212765;23;20315;-75
2024/02/18 06:13:07;;;;;;;42.43;17.33;;;5.00;99.90;;;;;;6210907;23;20435;-77
2024/02/18 06:15:33;;;;;;;91.60;18.70;;;5.00;99.90;;;;;;6212003;23;20308;-77
2024/02/18 06:17:59;;;;;;;56.03;18.83;;;5.00;99.90;;;;;;6212487;23;20030;-77
2024/02/18 06:20:25;;;;;;;25.13;18.33;;;5.00;99.90;;;;;;6212381;23;20493;-77
2024/02/18 06:22:51;;;;;;;33.63;18.23;;;5.00;99.90;;;;;;6210332;23;20111;-77
2024/02/18 06:25:17;;;;;;;41.70;19.03;;;5.00;99.90;;;;;;6208139;23;20110;-77
2024/02/18 06:27:43;;;;;;;80.17;17.83;;;5.00;99.90;;;;;;6210897;23;20009;-77
2024/02/18 06:30:10;;;;;;;47.43;19.37;;;5.00;99.90;;;;;;6211791;23;19997;-77
2024/02/18 06:32:35;;;;;;;57.90;21.00;;;4.90;99.90;;;;;;6212443;23;19997;-77
2024/02/18 06:35:02;;;;;;;134.27;20.67;;;4.90;99.90;;;;;;6211824;23;20419;-77
2024/02/18 06:37:27;;;;;;;134.53;20.27;;;4.90;99.90;;;;;;6211790;23;20473;-77
2024/02/18 06:39:53;;;;;;;78.23;18.73;;;4.90;99.90;;;;;;6212378;23;20008;-77
2024/02/18 06:42:19;;;;;;;68.80;16.67;;;4.90;99.90;;;;;;6212064;23;20056;-76
2024/02/18 06:44:44;;;;;;;59.23;15.17;;;4.90;99.90;;;;;;6210962;23;20054;-76
2024/02/18 06:47:10;;;;;;;107.43;15.97;;;4.90;99.90;;;;;;6212481;23;20012;-76
2024/02/18 06:49:35;;;;;;;78.00;16.80;;;4.90;99.90;;;;;;6212603;23;20016;-76
2024/02/18 06:52:01;;;;;;;113.63;15.87;;;4.90;99.90;;;;;;6212583;23;20001;-76
2024/02/18 06:54:26;;;;;;;50.20;15.90;;;5.00;99.90;;;;;;6211543;23;19996;-76
2024/02/18 06:56:52;;;;;;;29.07;15.50;;;5.00;99.90;;;;;;6212307;23;20058;-76
2024/02/18 06:59:18;;;;;;;112.47;16.40;;;5.00;99.90;;;;;;6211710;23;20000;-76
2024/02/18 07:01:44;;;;;;;47.20;14.93;;;5.10;99.90;;;;;;6212568;23;20587;-76
2024/02/18 07:04:10;;;;;;;115.93;16.57;;;5.10;99.90;;;;;;6213797;23;20007;-76
2024/02/18 07:06:37;;;;;;;41.90;15.37;;;5.10;99.90;;;;;;6214676;23;20008;-76
2024/02/18 07:09:03;;;;;;;64.33;14.83;;;5.10;99.90;;;;;;6213195;23;20012;-76
2024/02/18 07:11:28;;;;;;;77.07;21.93;;;5.20;99.90;;;;;;6214463;23;20005;-76
2024/02/18 07:13:54;;;;;;;25.27;19.00;;;5.20;99.90;;;;;;6213107;23;20031;-76
2024/02/18 07:16:20;;;;;;;107.80;18.87;;;5.20;99.90;;;;;;6213298;23;20012;-76
2024/02/18 07:18:46;;;;;;;116.83;17.90;;;5.20;99.90;;;;;;6213289;23;20101;-76
2024/02/18 07:21:14;;;;;;;151.93;18.20;;;5.20;99.90;;;;;;6212689;23;20091;-76
2024/02/18 07:23:47;;;;;;;53.30;16.17;;;5.10;99.90;;;;;;6212166;23;20024;-76
2024/02/18 07:26:16;;;;;;;20.80;14.67;;;5.20;99.90;;;;;;6212769;23;20020;-76
2024/02/18 07:28:41;;;;;;;71.33;15.47;;;5.20;99.90;;;;;;6214018;23;20070;-76
2024/02/18 07:31:08;;;;;;;303.27;17.43;;;5.30;99.90;;;;;;6212704;23;19996;-76
2024/02/18 07:33:35;;;;;;;134.97;14.80;;;5.30;99.90;;;;;;6212631;23;20008;-76
2024/02/18 07:36:01;;;;;;;87.73;13.53;;;5.30;99.90;;;;;;6213274;23;19997;-76
2024/02/18 07:38:26;;;;;;;96.53;13.30;;;5.30;99.90;;;;;;6213128;23;20017;-76
2024/02/18 07:40:53;;;;;;;90.03;14.07;;;5.30;99.90;;;;;;6212622;23;20001;-76
2024/02/18 07:43:19;;;;;;;111.50;13.67;;;5.40;99.90;;;;;;6213195;23;20000;-76
2024/02/18 07:45:46;;;;;;;164.50;14.97;;;5.40;99.90;;;;;;6212345;23;20092;-77
2024/02/18 07:48:12;;;;;;;44.87;11.97;;;5.40;99.90;;;;;;6212994;23;20084;-76
2024/02/18 07:50:38;;;;;;;125.20;12.70;;;5.40;99.90;;;;;;6212904;23;20015;-76
2024/02/18 07:53:03;;;;;;;99.87;13.17;;;5.50;99.90;;;;;;6213546;23;20494;-76
2024/02/18 07:55:31;;;;;;;32.03;13.73;;;5.40;99.90;;;;;;6212509;23;20011;-83
2024/02/18 07:57:57;;;;;;;43.20;12.90;;;5.50;99.90;;;;;;6213160;23;20070;-79
2024/02/18 08:00:22;;;;;;;24.83;13.67;;;5.50;99.90;;;;;;6214606;23;20009;-79
2024/02/18 08:02:48;;;;;;;32.80;12.83;;;5.60;99.90;;;;;;6212992;23;20062;-79
2024/02/18 08:05:14;;;;;;;126.10;15.17;;;5.70;99.90;;;;;;6212649;23;20009;-79
2024/02/18 08:07:39;;;;;;;114.83;14.07;;;5.80;99.90;;;;;;6212918;23;20027;-82
2024/02/18 08:10:05;;;;;;;21.83;13.60;;;5.80;99.90;;;;;;6214050;23;20039;-79
2024/02/18 08:12:31;;;;;;;17.27;14.13;;;5.80;99.90;;;;;;6212445;23;20020;-79
2024/02/18 08:14:57;;;;;;;116.97;16.97;;;5.90;99.90;;;;;;6212465;23;20001;-78
2024/02/18 08:17:23;;;;;;;89.00;13.80;;;6.00;99.90;;;;;;6213108;23;20008;-78
2024/02/18 08:19:49;;;;;;;75.83;13.53;;;6.10;99.90;;;;;;6185480;23;20502;-81
2024/02/18 08:22:15;;;;;;;80.43;14.87;;;6.10;99.90;;;;;;6212765;23;20479;-79
2024/02/18 08:24:44;;;;;;;28.63;15.30;;;6.20;99.90;;;;;;6212271;23;20008;-79
2024/02/18 08:27:09;;;;;;;28.07;17.40;;;6.30;99.90;;;;;;6214600;23;20008;-80
2024/02/18 08:29:36;;;;;;;30.17;15.87;;;6.40;99.90;;;;;;6216341;23;20020;-82
2024/02/18 08:32:02;;;;;;;17.17;13.97;;;6.50;99.90;;;;;;6218394;23;20024;-80
2024/02/18 08:34:28;;;;;;;84.47;14.77;;;6.60;99.90;;;;;;6213301;23;20478;-77
2024/02/18 08:36:53;;;;;;;33.80;14.00;;;6.60;99.90;;;;;;6211558;23;20008;-70
2024/02/18 08:39:20;;;;;;;30.27;14.90;;;6.70;99.90;;;;;;6211666;23;20067;-77
2024/02/18 08:41:46;;;;;;;66.13;15.80;;;6.80;99.90;;;;;;6212039;23;20370;-77
2024/02/18 08:44:14;;;;;;;20.67;13.60;;;6.80;99.90;;;;;;6209555;23;20039;-77
2024/02/18 08:46:40;;;;;;;21.20;14.67;;;6.90;99.90;;;;;;6212047;23;20004;-77
2024/02/18 08:49:05;;;;;;;62.80;17.83;;;6.90;99.90;;;;;;6213306;23;20005;-77
2024/02/18 08:51:31;;;;;;;65.27;14.70;;;7.00;99.90;;;;;;6212023;23;20084;-77
2024/02/18 08:53:56;;;;;;;59.50;15.73;;;7.00;99.90;;;;;;6209969;23;20008;-77
2024/02/18 08:56:22;;;;;;;43.17;15.00;;;7.00;99.90;;;;;;6212414;23;20011;-77
2024/02/18 08:58:47;;;;;;;80.07;14.87;;;7.00;99.90;;;;;;6212726;23;20009;-76
2024/02/18 09:01:13;;;;;;;78.13;15.40;;;7.10;99.90;;;;;;6212155;23;20107;-77
2024/02/18 09:03:39;;;;;;;59.37;16.90;;;7.10;99.90;;;;;;6212795;23;19996;-77
2024/02/18 09:06:04;;;;;;;106.30;15.93;;;7.10;99.90;;;;;;6212739;23;20004;-77
2024/02/18 09:08:30;;;;;;;50.37;14.67;;;7.10;99.90;;;;;;6212022;23;20009;-77
2024/02/18 09:10:55;;;;;;;83.33;13.10;;;7.10;99.90;;;;;;6212527;23;20107;-77
2024/02/18 09:13:21;;;;;;;78.27;14.33;;;7.20;99.90;;;;;;6213594;23;20000;-83
2024/02/18 09:15:48;;;;;;;59.73;14.13;;;7.10;99.90;;;;;;6210204;23;20001;-76
2024/02/18 09:18:14;;;;;;;48.83;14.23;;;7.10;99.90;;;;;;6212262;23;20005;-77
2024/02/18 09:20:40;;;;;;;49.13;14.40;;;7.20;99.90;;;;;;6212718;23;20004;-77
2024/02/18 09:23:06;;;;;;;30.60;15.00;;;7.30;99.90;;;;;;6213030;23;20028;-78
2024/02/18 09:25:31;;;;;;;20.57;15.00;;;7.40;99.90;;;;;;6211324;23;20427;-78
2024/02/18 09:27:57;;;;;;;20.27;14.73;;;7.60;99.90;;;;;;6212216;23;20562;-78
2024/02/18 09:30:22;;;;;;;20.33;14.67;;;7.80;99.90;;;;;;6213111;23;20416;-78
2024/02/18 09:32:48;;;;;;;20.13;13.40;;;7.80;99.90;;;;;;6212204;23;20559;-78
2024/02/18 09:35:14;;;;;;;21.50;13.60;;;8.00;99.90;;;;;;6211688;23;20015;-78
2024/02/18 09:37:40;;;;;;;20.87;14.20;;;8.10;99.90;;;;;;6185918;23;20036;-77
2024/02/18 09:40:08;;;;;;;16.90;13.53;;;8.20;99.90;;;;;;6211859;23;20020;-77
2024/02/18 09:42:38;;;;;;;25.37;15.90;;;8.40;99.90;;;;;;6211219;23;20075;-77
2024/02/18 09:45:04;;;;;;;22.90;15.50;;;8.60;99.90;;;;;;6211268;23;20036;-77
2024/02/18 09:47:30;;;;;;;22.63;14.83;;;8.70;99.90;;;;;;6211713;23;20419;-78
2024/02/18 09:49:59;;;;;;;23.60;16.20;;;8.90;99.90;;;;;;6211965;23;20012;-77
2024/02/18 09:52:28;;;;;;;22.87;16.37;;;9.00;99.90;;;;;;6212815;23;20304;-77
2024/02/18 09:54:54;;;;;;;21.23;15.30;;;9.10;99.90;;;;;;6211686;23;20001;-77
2024/02/18 09:57:20;;;;;;;25.10;16.83;;;9.10;99.90;;;;;;6211393;23;20073;-77
2024/02/18 09:59:45;;;;;;;23.87;16.47;;;9.10;99.90;;;;;;6212579;23;20704;-78
2024/02/18 10:02:16;;;;;;;26.17;17.53;;;9.10;99.90;;;;;;6212642;23;20024;-78
2024/02/18 10:04:46;;;;;;;25.47;17.00;;;9.10;99.90;;;;;;6213423;23;19997;-79
2024/02/18 10:07:14;;;;;;;21.87;15.53;;;9.20;99.90;;;;;;6212380;23;20382;-78
2024/02/18 10:09:39;;;;;;;24.90;16.47;;;9.20;99.90;;;;;;6212195;23;20000;-76
2024/02/18 10:12:05;;;;;;;24.00;16.03;;;9.30;99.90;;;;;;6211875;23;20084;-77
2024/02/18 10:14:33;;;;;;;23.47;17.07;;;9.50;99.90;;;;;;6211187;23;20072;-77
2024/02/18 10:16:58;;;;;;;25.20;18.03;;;9.60;99.90;;;;;;6210865;23;20019;-76
2024/02/18 10:19:24;;;;;;;25.23;17.70;;;9.60;99.90;;;;;;6211764;23;20451;-77
2024/02/18 10:21:50;;;;;;;23.50;16.87;;;9.70;99.90;;;;;;6211910;23;20012;-74
2024/02/18 10:24:19;;;;;;;21.73;16.03;;;9.70;99.90;;;;;;6212401;23;20008;-76
2024/02/18 10:26:45;;;;;;;22.70;16.83;;;9.80;99.90;;;;;;6212899;23;20000;-73
2024/02/18 10:29:12;;;;;;;21.40;16.07;;;9.90;99.90;;;;;;6211668;23;20084;-74
2024/02/18 10:31:38;;;;;;;25.43;17.00;;;10.20;99.90;;;;;;6212897;23;20008;-74
2024/02/18 10:34:05;;;;;;;24.03;17.87;;;10.40;99.90;;;;;;6211424;23;20074;-75
2024/02/18 10:36:33;;;;;;;24.07;16.73;;;10.50;99.90;;;;;;6212638;23;20012;-72
2024/02/18 10:39:03;;;;;;;28.60;18.57;;;10.60;99.90;;;;;;6214047;23;20015;-74
2024/02/18 10:41:35;;;;;;;28.60;18.90;;;10.80;99.90;;;;;;6213663;23;20004;-72
2024/02/18 10:44:07;;;;;;;27.33;18.03;;;10.90;99.90;;;;;;6212979;23;20004;-75
2024/02/18 10:46:33;;;;;;;26.07;17.33;;;11.10;99.90;;;;;;6212406;23;20008;-73
2024/02/18 10:49:14;;;;;;;22.90;15.50;;;11.20;99.90;;;;;;6213651;23;20339;-73
2024/02/18 10:51:41;;;;;;;26.87;17.67;;;11.20;99.90;;;;;;6212372;23;20365;-73
2024/02/18 10:54:37;;;;;;;24.17;16.70;;;11.30;99.90;;;;;;6213150;23;20032;-74
2024/02/18 10:57:04;;;;;;;25.58;18.45;;;11.40;99.90;;;;;;6215267;23;20025;-73
2024/02/18 11:00:05;;;;;;;20.77;15.43;;;11.40;99.90;;;;;;6213944;23;20009;-81
2024/02/18 11:02:39;;;;;;;23.05;14.95;;;11.50;99.90;;;;;;6218134;23;20439;-80
2024/02/18 11:05:06;;;;;;;24.20;16.45;;;11.60;99.90;;;;;;6215281;23;20377;-76
2024/02/18 11:07:32;;;;;;;22.50;16.08;;;11.70;99.90;;;;;;6214052;23;20012;-76
2024/02/18 11:09:59;;;;;;;21.33;15.80;;;11.90;99.90;;;;;;6213033;23;20015;-76
2024/02/18 11:12:27;;;;;;;21.08;15.52;;;12.00;99.90;;;;;;6213055;23;20439;-76
2024/02/18 11:14:53;;;;;;;18.20;13.10;;;12.10;99.90;;;;;;6213017;23;20128;-76
2024/02/18 11:17:19;;;;;;;19.50;13.00;;;12.10;99.90;;;;;;6212615;23;20102;-76
2024/02/18 11:19:46;;;;;;;20.23;12.63;;;12.20;99.90;;;;;;6213584;23;20059;-76
2024/02/18 11:22:15;;;;;;;15.95;11.45;;;12.20;99.90;;;;;;6213662;23;20008;-75
2024/02/18 11:24:41;;;;;;;12.73;8.88;;;12.40;99.90;;;;;;6212173;23;20000;-69
2024/02/18 11:27:06;;;;;;;13.10;8.15;;;12.60;99.90;;;;;;6213525;23;20012;-71
2024/02/18 11:29:33;;;;;;;13.80;8.57;;;12.70;99.90;;;;;;6213495;23;20005;-70
2024/02/18 11:31:59;;;;;;;16.58;9.60;;;12.90;99.90;;;;;;6214126;23;20011;-77
2024/02/18 11:34:24;;;;;;;11.80;8.88;;;13.10;99.90;;;;;;6218489;23;20004;-77
2024/02/18 11:36:50;;;;;;;16.73;9.13;;;13.20;99.90;;;;;;6215187;23;20009;-78
2024/02/18 11:39:16;;;;;;;8.00;6.15;;;13.20;99.90;;;;;;6216979;23;20017;-81
2024/02/18 11:41:42;;;;;;;8.90;6.40;;;13.40;99.90;;;;;;6218904;23;19996;-80
2024/02/18 11:44:10;;;;;;;9.43;5.78;;;13.60;99.90;;;;;;6218654;23;19997;-81
2024/02/18 11:46:42;;;;;;;7.60;5.50;;;13.60;99.90;;;;;;6219553;23;20043;-80
2024/02/18 11:49:08;;;;;;;7.53;5.40;;;13.80;99.90;;;;;;6218948;23;20019;-81
2024/02/18 11:51:34;;;;;;;9.32;5.53;;;14.10;99.90;;;;;;6219413;23;20313;-81
2024/02/18 11:54:00;;;;;;;8.77;4.68;;;14.10;99.90;;;;;;6218898;23;20054;-81
2024/02/18 11:56:25;;;;;;;9.68;4.65;;;14.10;99.90;;;;;;6218518;23;20055;-81
2024/02/18 11:58:51;;;;;;;9.60;4.80;;;14.10;99.90;;;;;;6219799;23;20012;-81
2024/02/18 12:01:19;;;;;;;5.85;4.25;;;14.20;99.90;;;;;;6220647;23;20016;-81
2024/02/18 12:03:48;;;;;;;6.00;4.18;;;14.20;99.90;;;;;;6219394;23;20066;-80
2024/02/18 12:06:14;;;;;;;5.78;3.97;;;14.30;99.90;;;;;;6218127;23;20032;-80
2024/02/18 12:08:40;;;;;;;6.35;4.15;;;14.50;99.90;;;;;;6218974;23;20011;-81
2024/02/18 12:11:06;;;;;;;4.47;3.47;;;14.70;99.90;;;;;;6218041;23;20009;-81
2024/02/18 12:13:32;;;;;;;5.38;3.70;;;14.80;99.90;;;;;;6217719;23;20323;-80
2024/02/18 12:15:59;;;;;;;4.93;3.50;;;14.70;99.90;;;;;;6220049;23;20083;-81
2024/02/18 12:18:25;;;;;;;5.45;3.97;;;14.80;99.90;;;;;;6220722;23;20012;-81
2024/02/18 12:20:54;;;;;;;4.90;3.58;;;14.70;99.90;;;;;;6218477;23;20008;-81
2024/02/18 12:23:21;;;;;;;5.28;3.80;;;14.50;99.90;;;;;;6219772;23;20024;-81
2024/02/18 12:25:48;;;;;;;6.85;4.00;;;14.50;99.90;;;;;;6218805;23;20005;-81
2024/02/18 12:28:14;;;;;;;4.90;3.17;;;14.50;99.90;;;;;;6218582;23;20024;-81
2024/02/18 12:30:39;;;;;;;4.55;3.00;;;14.60;99.90;;;;;;6219409;23;20296;-80